createdAt,value
2017-08-06T00:01:24.388Z,7.64
2017-08-06T00:03:52.665Z,7.18
2017-08-06T00:06:20.928Z,11.30
2017-08-06T00:08:49.237Z,14.36
2017-08-06T00:11:17.508Z,17.02
2017-08-06T00:13:45.812Z,5.80
2017-08-06T00:16:14.081Z,8.88
2017-08-06T00:18:42.353Z,10.24
2017-08-06T00:21:10.632Z,7.50
2017-08-06T00:23:38.896Z,7.70
2017-08-06T00:26:07.215Z,5.64
2017-08-06T00:28:35.493Z,5.80
2017-08-06T00:31:03.753Z,6.66
2017-08-06T00:33:32.049Z,5.64
2017-08-06T00:36:00.319Z,5.70
2017-08-06T00:38:28.592Z,6.68
2017-08-06T00:40:56.858Z,5.92
2017-08-06T00:43:25.148Z,9.64
2017-08-06T00:45:52.640Z,6.96
2017-08-06T00:48:20.945Z,6.46
2017-08-06T00:50:49.206Z,5.72
2017-08-06T00:53:17.486Z,5.76
2017-08-06T00:55:45.764Z,5.20
2017-08-06T00:58:14.021Z,7.18
2017-08-06T01:00:42.330Z,5.16
2017-08-06T01:03:10.596Z,6.06
2017-08-06T01:05:38.873Z,5.96
2017-08-06T01:08:07.193Z,7.40
2017-08-06T01:10:34.688Z,6.02
2017-08-06T01:13:02.962Z,6.24
2017-08-06T01:15:30.503Z,7.02
2017-08-06T01:17:58.760Z,8.12
2017-08-06T01:20:27.055Z,5.60
2017-08-06T01:22:55.328Z,8.48
2017-08-06T01:25:23.620Z,7.16
2017-08-06T01:27:51.927Z,5.02
2017-08-06T01:30:20.192Z,7.02
2017-08-06T01:32:48.471Z,9.10
2017-08-06T01:35:16.771Z,10.36
2017-08-06T01:37:45.068Z,14.40
2017-08-06T01:40:13.339Z,9.04
2017-08-06T01:42:41.604Z,7.34
2017-08-06T01:45:09.920Z,7.08
2017-08-06T01:47:38.200Z,7.08
2017-08-06T01:50:06.476Z,6.08
2017-08-06T01:52:34.769Z,7.02
2017-08-06T01:55:03.026Z,11.28
2017-08-06T01:57:31.346Z,6.92
2017-08-06T01:59:59.618Z,6.90
2017-08-06T02:02:27.870Z,8.02
2017-08-06T02:04:56.181Z,8.42
2017-08-06T02:07:24.440Z,13.12
2017-08-06T02:09:52.688Z,8.74
2017-08-06T02:12:20.991Z,6.90
2017-08-06T02:14:49.303Z,8.60
2017-08-06T02:17:17.555Z,14.10
2017-08-06T02:19:45.856Z,9.94
2017-08-06T02:22:14.150Z,9.28
2017-08-06T02:24:42.416Z,16.08
2017-08-06T02:27:10.721Z,7.76
2017-08-06T02:29:38.984Z,12.44
2017-08-06T02:32:07.257Z,8.04
2017-08-06T02:34:35.540Z,9.86
2017-08-06T02:37:03.802Z,10.18
2017-08-06T02:39:31.337Z,10.84
2017-08-06T02:41:59.601Z,10.74
2017-08-06T02:44:27.860Z,11.60
2017-08-06T02:46:56.166Z,9.62
2017-08-06T02:49:24.424Z,9.18
2017-08-06T02:51:52.694Z,8.64
2017-08-06T02:54:20.993Z,9.44
2017-08-06T02:56:49.243Z,8.74
2017-08-06T02:59:17.525Z,12.90
2017-08-06T03:01:45.842Z,9.22
2017-08-06T03:04:15.052Z,9.48
2017-08-06T03:06:43.318Z,12.94
2017-08-06T03:09:11.638Z,10.04
2017-08-06T03:11:39.903Z,10.14
2017-08-06T03:14:08.164Z,10.34
2017-08-06T03:16:36.470Z,10.04
2017-08-06T03:19:04.739Z,10.90
2017-08-06T03:21:33.025Z,10.02
2017-08-06T03:24:01.304Z,11.88
2017-08-06T03:26:29.557Z,12.58
2017-08-06T03:28:57.853Z,9.96
2017-08-06T03:31:26.116Z,12.56
2017-08-06T03:33:54.386Z,16.64
2017-08-06T03:36:22.684Z,11.80
2017-08-06T03:38:50.944Z,12.60
2017-08-06T03:41:19.208Z,13.58
2017-08-06T03:43:47.525Z,15.08
2017-08-06T03:46:15.801Z,12.12
2017-08-06T03:48:44.062Z,10.72
2017-08-06T03:51:12.359Z,13.46
2017-08-06T03:53:44.060Z,12.86
2017-08-06T03:56:12.344Z,10.84
2017-08-06T03:58:39.863Z,12.46
2017-08-06T04:01:08.129Z,16.72
2017-08-06T04:03:36.445Z,13.32
2017-08-06T04:06:04.719Z,12.98
2017-08-06T04:08:32.983Z,12.68
2017-08-06T04:11:01.302Z,14.78
2017-08-06T04:13:29.583Z,12.64
2017-08-06T04:15:57.847Z,13.40
2017-08-06T04:18:26.142Z,14.72
2017-08-06T04:20:54.399Z,13.16
2017-08-06T04:23:22.662Z,12.84
2017-08-06T04:25:50.955Z,14.86
2017-08-06T04:28:19.214Z,19.66
2017-08-06T04:30:47.480Z,17.84
2017-08-06T04:33:15.802Z,18.42
2017-08-06T04:35:44.068Z,16.12
2017-08-06T04:38:12.337Z,18.18
2017-08-06T04:40:40.637Z,15.86
2017-08-06T04:43:08.899Z,12.68
2017-08-06T04:45:37.154Z,15.70
2017-08-06T04:48:06.355Z,18.12
2017-08-06T04:50:34.655Z,20.46
2017-08-06T04:53:02.914Z,18.98
2017-08-06T04:55:31.187Z,16.88
2017-08-06T04:57:59.491Z,23.70
2017-08-06T05:00:27.753Z,18.40
2017-08-06T05:02:56.021Z,27.78
2017-08-06T05:05:24.308Z,21.24
2017-08-06T05:07:52.577Z,17.08
2017-08-06T05:10:20.855Z,26.78
2017-08-06T05:12:49.132Z,21.76
2017-08-06T05:15:17.449Z,28.08
2017-08-06T05:17:45.763Z,21.80
2017-08-06T05:20:13.272Z,26.20
2017-08-06T05:22:41.569Z,23.52
2017-08-06T05:25:09.835Z,32.40
2017-08-06T05:27:38.091Z,24.32
2017-08-06T05:30:06.403Z,22.24
2017-08-06T05:32:34.668Z,26.16
2017-08-06T05:35:02.936Z,24.02
2017-08-06T05:37:31.231Z,23.86
2017-08-06T05:39:59.487Z,26.18
2017-08-06T05:42:27.783Z,29.34
2017-08-06T05:44:56.045Z,25.44
2017-08-06T05:47:24.344Z,21.20
2017-08-06T05:49:52.598Z,24.90
2017-08-06T05:52:20.896Z,26.72
2017-08-06T05:54:48.403Z,33.12
2017-08-06T05:57:16.712Z,35.14
2017-08-06T05:59:44.977Z,28.86
2017-08-06T06:02:13.239Z,32.30
2017-08-06T06:04:41.540Z,32.60
2017-08-06T06:07:09.807Z,26.50
2017-08-06T06:09:38.089Z,28.00
2017-08-06T06:12:06.388Z,28.38
2017-08-06T06:14:34.662Z,25.96
2017-08-06T06:17:02.991Z,26.14
2017-08-06T06:19:31.258Z,25.20
2017-08-06T06:21:59.565Z,25.40
2017-08-06T06:24:27.831Z,27.14
2017-08-06T06:26:56.120Z,25.04
2017-08-06T06:29:24.439Z,26.06
2017-08-06T06:31:52.726Z,25.50
2017-08-06T06:34:21.004Z,22.48
2017-08-06T06:36:49.292Z,23.04
2017-08-06T06:39:17.562Z,29.66
2017-08-06T06:41:45.860Z,24.24
2017-08-06T06:44:14.169Z,25.68
2017-08-06T06:46:42.440Z,33.12
2017-08-06T06:49:10.710Z,25.36
2017-08-06T06:51:38.999Z,25.22
2017-08-06T06:54:07.260Z,24.40
2017-08-06T06:56:35.561Z,21.12
2017-08-06T06:59:03.824Z,30.58
2017-08-06T07:01:32.128Z,26.52
2017-08-06T07:04:00.383Z,24.10
2017-08-06T07:06:28.647Z,20.70
2017-08-06T07:08:56.941Z,20.18
2017-08-06T07:11:25.233Z,19.70
2017-08-06T07:13:53.564Z,20.80
2017-08-06T07:16:21.837Z,18.00
2017-08-06T07:18:50.163Z,23.10
2017-08-06T07:21:18.431Z,24.56
2017-08-06T07:23:46.702Z,24.02
2017-08-06T07:26:15.011Z,20.54
2017-08-06T07:28:43.276Z,19.92
2017-08-06T07:31:10.814Z,20.22
2017-08-06T07:33:39.108Z,21.02
2017-08-06T07:36:07.376Z,18.46
2017-08-06T07:38:35.639Z,17.46
2017-08-06T07:41:03.931Z,15.76
2017-08-06T07:43:32.215Z,18.20
2017-08-06T07:46:00.474Z,19.38
2017-08-06T07:48:28.788Z,18.24
2017-08-06T07:50:57.059Z,12.56
2017-08-06T07:53:25.347Z,13.16
2017-08-06T07:55:53.655Z,16.26
2017-08-06T07:58:21.147Z,17.40
2017-08-06T08:00:49.418Z,15.04
2017-08-06T08:03:17.735Z,12.74
2017-08-06T08:05:46.048Z,15.20
2017-08-06T08:08:14.312Z,10.30
2017-08-06T08:10:42.580Z,12.26
2017-08-06T08:13:10.869Z,9.56
2017-08-06T08:15:39.132Z,14.18
2017-08-06T08:18:07.402Z,10.14
2017-08-06T08:20:35.716Z,9.64
2017-08-06T08:23:03.979Z,9.92
2017-08-06T08:25:32.244Z,8.80
2017-08-06T08:28:00.552Z,7.70
2017-08-06T08:30:28.811Z,11.86
2017-08-06T08:32:57.064Z,9.22
2017-08-06T08:35:25.367Z,10.08
2017-08-06T08:37:53.632Z,16.72
2017-08-06T08:40:21.891Z,13.10
2017-08-06T08:42:50.184Z,9.30
2017-08-06T08:45:18.457Z,10.54
2017-08-06T08:47:45.955Z,7.02
2017-08-06T08:50:14.258Z,12.06
2017-08-06T08:52:42.511Z,7.84
2017-08-06T08:55:10.773Z,11.68
2017-08-06T08:57:39.063Z,7.72
2017-08-06T09:00:07.356Z,16.00
2017-08-06T09:02:35.617Z,7.96
2017-08-06T09:05:03.904Z,7.00
2017-08-06T09:07:31.423Z,7.16
2017-08-06T09:09:59.697Z,6.72
2017-08-06T09:12:27.986Z,5.46
2017-08-06T09:14:56.279Z,4.84
2017-08-06T09:17:24.537Z,7.02
2017-08-06T09:19:52.791Z,5.30
2017-08-06T09:22:21.084Z,7.50
2017-08-06T09:24:49.353Z,7.42
2017-08-06T09:27:17.644Z,4.86
2017-08-06T09:29:45.908Z,7.64
2017-08-06T09:32:14.175Z,4.34
2017-08-06T09:34:42.502Z,4.12
2017-08-06T09:37:10.773Z,10.12
2017-08-06T09:39:39.028Z,6.14
2017-08-06T09:42:07.324Z,5.54
2017-08-06T09:44:35.581Z,5.06
2017-08-06T09:47:03.861Z,4.02
2017-08-06T09:49:32.147Z,3.50
2017-08-06T09:52:00.447Z,6.46
2017-08-06T09:54:27.942Z,5.02
2017-08-06T09:56:56.208Z,6.06
2017-08-06T09:59:24.504Z,7.18
2017-08-06T10:01:52.768Z,4.38
2017-08-06T10:04:21.049Z,6.80
2017-08-06T10:06:52.236Z,5.58
2017-08-06T10:09:21.284Z,4.92
2017-08-06T10:11:49.571Z,10.76
2017-08-06T10:14:17.835Z,6.48
2017-08-06T10:16:46.128Z,4.20
2017-08-06T10:19:14.384Z,4.36
2017-08-06T10:21:42.634Z,4.96
2017-08-06T10:24:10.938Z,3.52
2017-08-06T10:26:39.196Z,5.42
2017-08-06T10:29:07.458Z,4.42
2017-08-06T10:31:37.719Z,4.86
2017-08-06T10:34:05.980Z,4.72
2017-08-06T10:36:34.235Z,5.62
2017-08-06T10:39:02.527Z,5.90
2017-08-06T10:41:31.692Z,3.96
2017-08-06T10:43:59.995Z,4.36
2017-08-06T10:46:28.252Z,4.54
2017-08-06T10:48:56.506Z,5.54
2017-08-06T10:51:24.817Z,4.78
2017-08-06T10:53:53.062Z,4.28
2017-08-06T10:56:21.325Z,4.04
2017-08-06T10:58:49.635Z,5.70
2017-08-06T11:01:17.898Z,4.98
2017-08-06T11:03:46.162Z,3.94
2017-08-06T11:06:14.479Z,5.68
2017-08-06T11:08:41.974Z,6.16
2017-08-06T11:11:10.230Z,3.32
2017-08-06T11:13:38.541Z,4.64
2017-08-06T11:16:06.801Z,3.32
2017-08-06T11:18:35.052Z,4.32
2017-08-06T11:21:02.582Z,4.32
2017-08-06T11:23:30.886Z,2.70
2017-08-06T11:25:59.148Z,3.68
2017-08-06T11:28:27.420Z,3.88
2017-08-06T11:30:55.720Z,3.96
2017-08-06T11:33:23.984Z,3.36
2017-08-06T11:35:52.287Z,3.68
2017-08-06T11:38:20.563Z,3.30
2017-08-06T11:40:50.787Z,2.90
2017-08-06T11:43:19.055Z,4.66
2017-08-06T11:45:47.319Z,5.88
2017-08-06T11:48:15.636Z,3.40
2017-08-06T11:50:44.877Z,5.24
2017-08-06T11:53:13.138Z,4.58
2017-08-06T11:55:41.419Z,4.84
2017-08-06T11:58:09.701Z,4.94
2017-08-06T12:00:37.991Z,3.64
2017-08-06T12:03:06.288Z,3.26
2017-08-06T12:05:34.552Z,3.80
2017-08-06T12:08:02.863Z,3.58
2017-08-06T12:10:31.114Z,4.90
2017-08-06T12:13:00.292Z,3.38
2017-08-06T12:15:28.633Z,3.60
2017-08-06T12:17:56.898Z,4.04
2017-08-06T12:20:25.157Z,4.70
2017-08-06T12:22:53.431Z,3.32
2017-08-06T12:25:21.693Z,3.90
2017-08-06T12:27:49.991Z,5.40
2017-08-06T12:30:18.250Z,4.88
2017-08-06T12:32:46.516Z,5.10
2017-08-06T12:35:14.801Z,4.20
2017-08-06T12:37:43.061Z,4.00
2017-08-06T12:40:11.391Z,3.82
2017-08-06T12:42:39.648Z,4.20
2017-08-06T12:45:07.919Z,5.40
2017-08-06T12:47:36.225Z,3.44
2017-08-06T12:50:04.533Z,3.58
2017-08-06T12:52:32.797Z,4.28
2017-08-06T12:55:01.088Z,5.26
2017-08-06T12:57:28.579Z,3.42
2017-08-06T12:59:56.840Z,4.74
2017-08-06T13:02:25.135Z,4.32
2017-08-06T13:04:53.395Z,4.12
2017-08-06T13:07:21.656Z,5.14
2017-08-06T13:09:49.973Z,4.20
2017-08-06T13:12:18.238Z,3.62
2017-08-06T13:14:46.499Z,2.92
2017-08-06T13:17:14.814Z,3.34
2017-08-06T13:19:43.078Z,5.72
2017-08-06T13:22:11.341Z,5.30
2017-08-06T13:24:39.625Z,4.58
2017-08-06T13:27:07.900Z,3.42
2017-08-06T13:29:36.185Z,3.44
2017-08-06T13:32:04.455Z,3.46
2017-08-06T13:34:32.747Z,5.98
2017-08-06T13:37:01.082Z,2.94
2017-08-06T13:39:29.352Z,3.24
2017-08-06T13:41:57.619Z,2.82
2017-08-06T13:44:25.941Z,3.52
2017-08-06T13:46:54.253Z,4.44
2017-08-06T13:49:22.518Z,2.82
2017-08-06T13:51:50.792Z,3.58
2017-08-06T13:54:19.103Z,3.88
2017-08-06T13:56:47.355Z,3.86
2017-08-06T13:59:15.630Z,4.18
2017-08-06T14:01:43.938Z,3.70
2017-08-06T14:04:12.229Z,4.56
2017-08-06T14:06:40.503Z,3.52
2017-08-06T14:09:08.789Z,4.14
2017-08-06T14:11:37.088Z,3.10
2017-08-06T14:14:05.355Z,4.64
2017-08-06T14:16:33.664Z,6.12
2017-08-06T14:19:01.927Z,3.66
2017-08-06T14:21:30.189Z,4.12
2017-08-06T14:23:58.485Z,3.10
2017-08-06T14:26:26.760Z,5.12
2017-08-06T14:28:55.049Z,3.94
2017-08-06T14:31:23.328Z,6.92
2017-08-06T14:33:51.590Z,6.32
2017-08-06T14:36:19.875Z,5.52
2017-08-06T14:38:48.177Z,4.98
2017-08-06T14:41:16.488Z,3.72
2017-08-06T14:43:44.754Z,3.48
2017-08-06T14:46:13.019Z,5.38
2017-08-06T14:48:41.323Z,3.22
2017-08-06T14:51:09.597Z,4.62
2017-08-06T14:53:37.899Z,4.18
2017-08-06T14:56:06.155Z,2.80
2017-08-06T14:58:34.411Z,3.22
2017-08-06T15:01:02.711Z,5.20
2017-08-06T15:03:30.981Z,3.64
2017-08-06T15:05:59.245Z,5.12
2017-08-06T15:08:27.562Z,4.96
2017-08-06T15:10:56.043Z,3.04
2017-08-06T15:13:24.309Z,4.30
2017-08-06T15:15:51.805Z,4.66
2017-08-06T15:18:20.097Z,5.58
2017-08-06T15:20:48.396Z,5.20
2017-08-06T15:23:16.659Z,3.26
2017-08-06T15:25:44.925Z,5.36
2017-08-06T15:28:13.216Z,3.70
2017-08-06T15:30:40.767Z,8.30
2017-08-06T15:33:09.029Z,3.92
2017-08-06T15:35:37.291Z,4.66
2017-08-06T15:38:05.624Z,7.60
2017-08-06T15:40:33.894Z,6.36
2017-08-06T15:43:02.163Z,11.00
2017-08-06T15:45:30.452Z,3.74
2017-08-06T15:47:58.708Z,3.44
2017-08-06T15:50:26.999Z,2.90
2017-08-06T15:52:55.278Z,4.98
2017-08-06T15:55:23.544Z,4.08
2017-08-06T15:57:51.836Z,3.24
2017-08-06T16:00:20.122Z,3.10
2017-08-06T16:02:48.388Z,7.32
2017-08-06T16:05:16.805Z,4.52
2017-08-06T16:07:45.063Z,4.56
2017-08-06T16:10:13.323Z,3.52
2017-08-06T16:12:41.608Z,3.10
2017-08-06T16:15:09.910Z,4.14
2017-08-06T16:17:38.188Z,4.22
2017-08-06T16:20:05.707Z,3.68
2017-08-06T16:22:34.027Z,4.30
2017-08-06T16:25:02.299Z,4.54
2017-08-06T16:27:30.562Z,3.10
2017-08-06T16:29:58.860Z,4.34
2017-08-06T16:32:27.443Z,14.48
2017-08-06T16:34:55.990Z,3.98
2017-08-06T16:37:24.260Z,3.04
2017-08-06T16:39:52.526Z,3.80
2017-08-06T16:42:20.836Z,3.58
2017-08-06T16:44:49.100Z,4.32
2017-08-06T16:47:17.364Z,3.28
2017-08-06T16:49:45.655Z,3.00
2017-08-06T16:52:13.941Z,3.26
2017-08-06T16:54:42.219Z,3.58
2017-08-06T16:57:10.480Z,5.16
2017-08-06T16:59:38.776Z,2.82
2017-08-06T17:02:07.043Z,2.88
2017-08-06T17:04:35.345Z,3.28
2017-08-06T17:07:03.645Z,3.84
2017-08-06T17:09:31.919Z,4.96
2017-08-06T17:12:01.163Z,3.52
2017-08-06T17:14:29.424Z,3.82
2017-08-06T17:16:57.694Z,2.88
2017-08-06T17:19:25.960Z,4.14
2017-08-06T17:21:55.133Z,3.22
2017-08-06T17:24:23.424Z,3.38
2017-08-06T17:26:51.739Z,4.34
2017-08-06T17:29:20.060Z,3.14
2017-08-06T17:31:48.321Z,4.08
2017-08-06T17:34:16.633Z,4.82
2017-08-06T17:36:44.887Z,3.08
2017-08-06T17:39:13.144Z,5.02
2017-08-06T17:41:41.442Z,3.82
2017-08-06T17:44:09.697Z,3.08
2017-08-06T17:46:37.973Z,4.48
2017-08-06T17:49:06.272Z,2.98
2017-08-06T17:51:34.533Z,3.80
2017-08-06T17:54:02.834Z,3.20
2017-08-06T17:56:31.179Z,2.86
2017-08-06T17:58:59.451Z,3.00
2017-08-06T18:01:27.740Z,3.40
2017-08-06T18:03:56.041Z,3.20
2017-08-06T18:06:24.342Z,2.60
2017-08-06T18:08:52.609Z,3.22
2017-08-06T18:11:20.879Z,5.30
2017-08-06T18:13:49.186Z,3.46
2017-08-06T18:16:17.449Z,3.64
2017-08-06T18:18:45.709Z,3.72
2017-08-06T18:21:14.029Z,3.72
2017-08-06T18:23:42.295Z,3.54
2017-08-06T18:26:10.559Z,3.54
2017-08-06T18:28:38.873Z,3.36
2017-08-06T18:31:07.144Z,3.90
2017-08-06T18:33:35.420Z,5.86
2017-08-06T18:36:03.718Z,5.58
2017-08-06T18:38:31.982Z,6.00
2017-08-06T18:41:00.251Z,4.24
2017-08-06T18:43:28.571Z,3.24
2017-08-06T18:45:56.837Z,4.42
2017-08-06T18:48:25.090Z,4.90
2017-08-06T18:50:53.389Z,3.00
2017-08-06T18:53:21.655Z,5.18
2017-08-06T18:55:49.924Z,3.94
2017-08-06T18:58:18.228Z,3.52
2017-08-06T19:00:46.500Z,4.56
2017-08-06T19:03:14.761Z,6.46
2017-08-06T19:05:43.059Z,3.58
2017-08-06T19:08:11.325Z,2.88
2017-08-06T19:10:39.595Z,3.42
2017-08-06T19:13:07.888Z,3.40
2017-08-06T19:15:36.187Z,4.62
2017-08-06T19:18:05.361Z,3.16
2017-08-06T19:20:33.651Z,4.86
2017-08-06T19:23:01.924Z,4.98
2017-08-06T19:25:30.214Z,4.00
2017-08-06T19:27:58.474Z,3.50
2017-08-06T19:30:26.776Z,3.38
2017-08-06T19:32:55.045Z,6.02
2017-08-06T19:35:23.335Z,6.82
2017-08-06T19:37:51.591Z,3.06
2017-08-06T19:40:19.100Z,9.12
2017-08-06T19:42:47.393Z,7.14
2017-08-06T19:45:15.660Z,5.48
2017-08-06T19:47:43.961Z,5.98
2017-08-06T19:50:11.443Z,3.74
2017-08-06T19:52:39.706Z,4.36
2017-08-06T19:55:07.995Z,3.84
2017-08-06T19:57:36.259Z,3.54
2017-08-06T20:00:04.564Z,5.52
2017-08-06T20:02:32.831Z,3.44
2017-08-06T20:05:01.101Z,3.40
2017-08-06T20:07:29.396Z,4.14
2017-08-06T20:09:57.663Z,3.24
2017-08-06T20:12:25.925Z,4.58
2017-08-06T20:14:54.213Z,3.60
2017-08-06T20:17:22.467Z,3.56
2017-08-06T20:19:50.775Z,4.04
2017-08-06T20:22:19.037Z,5.92
2017-08-06T20:24:47.293Z,3.66
2017-08-06T20:27:15.600Z,5.70
2017-08-06T20:29:43.855Z,7.44
2017-08-06T20:32:12.120Z,4.64
2017-08-06T20:34:40.421Z,4.22
2017-08-06T20:37:08.680Z,6.70
2017-08-06T20:39:36.956Z,4.26
2017-08-06T20:42:05.263Z,5.42
2017-08-06T20:44:33.532Z,4.80
2017-08-06T20:47:01.814Z,4.38
2017-08-06T20:49:30.121Z,4.98
2017-08-06T20:51:58.386Z,4.30
2017-08-06T20:54:26.640Z,4.58
2017-08-06T20:56:54.916Z,6.08
2017-08-06T20:59:23.177Z,5.22
2017-08-06T21:01:51.467Z,5.40
2017-08-06T21:04:19.724Z,6.14
2017-08-06T21:06:47.997Z,5.28
2017-08-06T21:09:16.283Z,5.46
2017-08-06T21:11:44.570Z,6.88
2017-08-06T21:14:12.869Z,6.08
2017-08-06T21:16:41.155Z,6.42
2017-08-06T21:19:09.416Z,6.16
2017-08-06T21:21:37.695Z,6.50
2017-08-06T21:24:05.950Z,6.36
2017-08-06T21:26:34.238Z,7.20
2017-08-06T21:29:02.548Z,6.04
2017-08-06T21:31:30.803Z,6.10
2017-08-06T21:33:59.053Z,6.88
2017-08-06T21:36:27.347Z,5.80
2017-08-06T21:38:55.625Z,9.44
2017-08-06T21:41:23.873Z,5.86
2017-08-06T21:43:53.087Z,8.86
2017-08-06T21:46:21.356Z,5.42
2017-08-06T21:48:49.651Z,5.82
2017-08-06T21:51:17.914Z,5.88
2017-08-06T21:53:46.207Z,6.12
2017-08-06T21:56:14.459Z,7.04
2017-08-06T21:58:42.765Z,9.66
2017-08-06T22:01:11.023Z,8.52
2017-08-06T22:03:39.286Z,7.16
2017-08-06T22:06:07.579Z,6.64
2017-08-06T22:08:35.848Z,6.68
2017-08-06T22:11:04.144Z,6.76
2017-08-06T22:13:32.409Z,7.58
2017-08-06T22:16:00.676Z,5.90
2017-08-06T22:18:28.968Z,6.14
2017-08-06T22:20:57.215Z,7.52
2017-08-06T22:23:25.499Z,6.24
2017-08-06T22:25:53.754Z,6.60
2017-08-06T22:28:22.056Z,7.36
2017-08-06T22:30:50.315Z,7.54
2017-08-06T22:33:18.563Z,5.98
2017-08-06T22:35:46.885Z,6.46
2017-08-06T22:38:15.140Z,6.74
2017-08-06T22:40:43.443Z,6.12
2017-08-06T22:43:11.701Z,7.08
2017-08-06T22:45:39.992Z,6.36
2017-08-06T22:48:07.472Z,6.60
2017-08-06T22:50:35.773Z,6.66
2017-08-06T22:53:04.025Z,6.82
2017-08-06T22:55:32.325Z,6.48
2017-08-06T22:58:00.585Z,6.64
2017-08-06T23:00:28.849Z,10.78
2017-08-06T23:02:57.152Z,7.36
2017-08-06T23:05:25.403Z,6.04
2017-08-06T23:07:53.673Z,8.42
2017-08-06T23:10:21.967Z,6.36
2017-08-06T23:12:50.233Z,5.66
2017-08-06T23:15:18.530Z,6.26
2017-08-06T23:17:46.800Z,10.06
2017-08-06T23:20:15.099Z,5.74
2017-08-06T23:22:43.357Z,6.98
2017-08-06T23:25:11.628Z,6.30
2017-08-06T23:27:39.941Z,6.68
2017-08-06T23:30:08.211Z,7.06
2017-08-06T23:32:36.499Z,7.52
2017-08-06T23:35:04.036Z,5.60
2017-08-06T23:37:32.336Z,6.42
2017-08-06T23:40:00.592Z,5.36
2017-08-06T23:42:28.895Z,9.16
2017-08-06T23:44:57.168Z,7.02
2017-08-06T23:47:25.438Z,6.72
2017-08-06T23:49:53.733Z,8.66
2017-08-06T23:52:21.991Z,6.44
2017-08-06T23:54:50.296Z,6.40
2017-08-06T23:57:18.545Z,5.90
2017-08-06T23:59:46.804Z,7.22
